createdAt,value
2023-01-29T00:01:40.200Z,72.21
2023-01-29T00:04:42.808Z,72.29
2023-01-29T00:07:44.922Z,72.33
2023-01-29T00:10:47.314Z,71.43
2023-01-29T00:13:50.599Z,70.52
2023-01-29T00:16:53.790Z,71.11
2023-01-29T00:19:55.985Z,70.74
2023-01-29T00:22:58.200Z,71.51
2023-01-29T00:26:00.663Z,71.64
2023-01-29T00:29:04.270Z,71.70
2023-01-29T00:32:06.862Z,71.49
2023-01-29T00:35:09.673Z,72.91
2023-01-29T00:38:11.720Z,72.33
2023-01-29T00:41:34.581Z,72.47
2023-01-29T00:44:55.505Z,72.72
2023-01-29T00:47:57.478Z,72.95
2023-01-29T00:51:01.641Z,73.77
2023-01-29T00:54:07.084Z,73.65
2023-01-29T00:57:09.025Z,74.64
2023-01-29T01:00:14.611Z,74.43
2023-01-29T01:03:18.280Z,73.84
2023-01-29T01:06:20.421Z,74.14
2023-01-29T01:09:42.433Z,74.45
2023-01-29T01:12:44.725Z,74.43
2023-01-29T01:15:46.916Z,75.21
2023-01-29T01:18:49.069Z,74.71
2023-01-29T01:21:51.536Z,74.55
2023-01-29T01:24:53.692Z,74.37
2023-01-29T01:27:57.587Z,74.41
2023-01-29T01:31:08.679Z,74.32
2023-01-29T01:34:10.795Z,75.21
2023-01-29T01:37:12.905Z,75.10
2023-01-29T01:40:18.691Z,74.85
2023-01-29T01:43:20.942Z,75.18
2023-01-29T01:46:24.170Z,75.49
2023-01-29T01:49:26.886Z,75.71
2023-01-29T01:52:32.837Z,75.26
2023-01-29T01:55:42.346Z,75.80
2023-01-29T01:58:51.173Z,75.92
2023-01-29T02:01:54.677Z,75.72
2023-01-29T02:05:15.542Z,75.42
2023-01-29T02:08:53.516Z,75.85
2023-01-29T02:11:58.408Z,76.33
2023-01-29T02:15:03.684Z,76.24
2023-01-29T02:18:06.635Z,76.28
2023-01-29T02:21:25.425Z,76.43
2023-01-29T02:24:27.477Z,76.27
2023-01-29T02:27:49.215Z,75.56
2023-01-29T02:31:10.088Z,75.49
2023-01-29T02:34:54.436Z,76.14
2023-01-29T02:38:24.570Z,76.32
2023-01-29T02:41:42.175Z,76.14
2023-01-29T02:45:14.681Z,75.73
2023-01-29T02:48:23.231Z,75.96
2023-01-29T02:51:34.486Z,76.25
2023-01-29T02:54:51.098Z,76.91
2023-01-29T02:58:00.100Z,76.98
2023-01-29T03:01:13.952Z,77.30
2023-01-29T03:04:29.970Z,76.13
2023-01-29T03:07:46.831Z,76.23
2023-01-29T03:10:56.071Z,76.24
2023-01-29T03:14:06.625Z,77.14
2023-01-29T03:17:10.574Z,76.85
2023-01-29T03:20:19.582Z,77.23
2023-01-29T03:23:39.183Z,77.06
2023-01-29T03:27:02.618Z,75.89
2023-01-29T03:30:27.032Z,75.85
2023-01-29T03:33:35.750Z,75.32
2023-01-29T03:36:51.189Z,75.57
2023-01-29T03:39:53.603Z,76.19
2023-01-29T03:43:14.027Z,76.25
2023-01-29T03:46:35.677Z,75.91
2023-01-29T03:49:46.365Z,75.06
2023-01-29T03:52:51.188Z,75.67
2023-01-29T03:55:59.830Z,75.49
2023-01-29T03:59:30.795Z,75.39
2023-01-29T04:02:42.825Z,75.58
2023-01-29T04:06:12.390Z,75.22
2023-01-29T04:09:22.637Z,74.48
2023-01-29T04:12:30.748Z,73.59
2023-01-29T04:15:41.068Z,73.31
2023-01-29T04:18:47.113Z,73.63
2023-01-29T04:21:53.317Z,73.76
2023-01-29T04:24:55.615Z,73.55
2023-01-29T04:28:23.479Z,73.05
2023-01-29T04:31:33.866Z,72.94
2023-01-29T04:35:01.771Z,72.99
2023-01-29T04:38:17.168Z,72.59
2023-01-29T04:41:27.743Z,72.61
2023-01-29T04:45:06.914Z,72.52
2023-01-29T04:48:31.110Z,72.68
2023-01-29T04:51:55.945Z,72.34
2023-01-29T04:55:17.627Z,72.21
2023-01-29T04:58:41.064Z,72.30
2023-01-29T05:01:44.857Z,72.63
2023-01-29T05:04:48.381Z,72.78
2023-01-29T05:07:50.780Z,72.03
2023-01-29T05:10:55.256Z,71.09
2023-01-29T05:13:58.341Z,70.52
2023-01-29T05:17:03.321Z,72.29
2023-01-29T05:20:06.237Z,71.70
2023-01-29T05:23:26.809Z,72.29
2023-01-29T05:26:47.227Z,72.17
2023-01-29T05:29:49.345Z,71.42
2023-01-29T05:32:51.595Z,71.35
2023-01-29T05:35:55.490Z,71.17
2023-01-29T05:38:58.002Z,70.77
2023-01-29T05:42:00.007Z,71.46
2023-01-29T05:45:01.891Z,71.63
2023-01-29T05:48:03.995Z,71.10
2023-01-29T05:51:07.092Z,71.36
2023-01-29T05:54:12.589Z,70.87
2023-01-29T05:57:15.372Z,71.04
2023-01-29T06:00:17.825Z,70.14
2023-01-29T06:03:21.109Z,70.37
2023-01-29T06:06:22.975Z,71.07
2023-01-29T06:09:25.011Z,71.28
2023-01-29T06:12:27.839Z,71.14
2023-01-29T06:15:29.718Z,71.50
2023-01-29T06:18:31.619Z,71.60
2023-01-29T06:21:34.118Z,71.46
2023-01-29T06:24:36.705Z,72.05
2023-01-29T06:27:39.025Z,72.06
2023-01-29T06:30:41.355Z,72.71
2023-01-29T06:33:43.444Z,73.10
2023-01-29T06:36:45.413Z,73.42
2023-01-29T06:39:47.430Z,73.47
2023-01-29T06:42:49.418Z,73.77
2023-01-29T06:45:55.024Z,74.23
2023-01-29T06:49:01.153Z,73.58
2023-01-29T06:52:03.470Z,73.43
2023-01-29T06:55:06.186Z,72.83
2023-01-29T06:58:10.036Z,73.68
2023-01-29T07:01:29.073Z,73.37
2023-01-29T07:04:35.708Z,73.78
2023-01-29T07:07:37.827Z,73.85
2023-01-29T07:10:41.759Z,74.06
2023-01-29T07:13:44.168Z,74.83
2023-01-29T07:16:46.477Z,74.96
2023-01-29T07:19:48.494Z,75.38
2023-01-29T07:22:50.845Z,73.86
2023-01-29T07:25:53.008Z,74.21
2023-01-29T07:28:55.393Z,73.55
2023-01-29T07:31:57.294Z,74.30
2023-01-29T07:34:59.500Z,75.31
2023-01-29T07:38:01.523Z,74.05
2023-01-29T07:41:03.699Z,73.93
2023-01-29T07:44:05.832Z,73.24
2023-01-29T07:47:09.492Z,74.61
2023-01-29T07:50:14.452Z,74.29
2023-01-29T07:53:17.268Z,74.10
2023-01-29T07:56:19.357Z,72.86
2023-01-29T07:59:22.056Z,73.02
2023-01-29T08:02:24.360Z,73.20
2023-01-29T08:05:26.538Z,72.74
2023-01-29T08:08:28.627Z,71.90
2023-01-29T08:11:30.878Z,72.28
2023-01-29T08:14:33.145Z,72.76
2023-01-29T08:17:36.028Z,72.16
2023-01-29T08:20:47.064Z,71.50
2023-01-29T08:23:49.336Z,71.16
2023-01-29T08:26:51.319Z,71.80
2023-01-29T08:29:53.454Z,71.14
2023-01-29T08:32:55.596Z,70.44
2023-01-29T08:36:00.494Z,70.67
2023-01-29T08:39:02.929Z,70.92
2023-01-29T08:42:05.438Z,70.30
2023-01-29T08:45:08.005Z,70.42
2023-01-29T08:48:10.619Z,70.24
2023-01-29T08:51:13.126Z,69.74
2023-01-29T08:54:17.262Z,70.26
2023-01-29T08:57:19.611Z,70.79
2023-01-29T09:00:22.282Z,70.58
2023-01-29T09:03:25.236Z,70.31
2023-01-29T09:06:27.377Z,70.34
2023-01-29T09:09:29.785Z,69.58
2023-01-29T09:12:32.193Z,68.56
2023-01-29T09:15:34.388Z,68.13
2023-01-29T09:18:37.226Z,69.42
2023-01-29T09:21:39.271Z,69.55
2023-01-29T09:24:41.528Z,69.32
2023-01-29T09:27:45.934Z,68.91
2023-01-29T09:30:49.367Z,69.37
2023-01-29T09:33:53.897Z,69.61
2023-01-29T09:36:56.019Z,69.22
2023-01-29T09:39:58.133Z,69.69
2023-01-29T09:43:09.640Z,69.42
2023-01-29T09:46:20.594Z,69.13
2023-01-29T09:49:41.827Z,69.23
2023-01-29T09:52:59.767Z,69.86
2023-01-29T09:56:06.251Z,68.58
2023-01-29T09:59:16.279Z,68.96
2023-01-29T10:02:41.209Z,68.24
2023-01-29T10:06:04.280Z,66.46
2023-01-29T10:09:43.844Z,66.92
2023-01-29T10:13:13.730Z,67.37
2023-01-29T10:16:31.634Z,67.22
2023-01-29T10:19:52.346Z,66.75
2023-01-29T10:23:21.279Z,66.07
2023-01-29T10:26:27.610Z,66.58
2023-01-29T10:29:31.632Z,66.32
2023-01-29T10:32:37.319Z,66.88
2023-01-29T10:35:46.587Z,66.29
2023-01-29T10:38:51.194Z,66.85
2023-01-29T10:42:30.383Z,66.62
2023-01-29T10:45:43.665Z,66.74
2023-01-29T10:48:55.226Z,66.84
2023-01-29T10:52:08.631Z,66.97
2023-01-29T10:55:29.515Z,65.96
2023-01-29T10:58:42.197Z,65.91
2023-01-29T11:01:44.420Z,65.31
2023-01-29T11:04:46.766Z,65.88
2023-01-29T11:07:55.164Z,65.64
2023-01-29T11:11:03.361Z,65.35
2023-01-29T11:14:10.537Z,65.13
2023-01-29T11:17:23.491Z,64.63
2023-01-29T11:20:28.456Z,64.10
2023-01-29T11:23:35.123Z,63.39
2023-01-29T11:26:42.376Z,64.17
2023-01-29T11:29:48.625Z,63.57
2023-01-29T11:32:59.371Z,62.68
2023-01-29T11:36:21.094Z,62.28
2023-01-29T11:39:24.654Z,62.72
2023-01-29T11:42:32.006Z,62.86
2023-01-29T11:45:38.687Z,62.53
2023-01-29T11:48:51.577Z,61.99
2023-01-29T11:51:56.111Z,61.35
2023-01-29T11:55:05.774Z,61.70
2023-01-29T11:58:30.025Z,61.78
2023-01-29T12:01:41.340Z,61.63
2023-01-29T12:04:43.744Z,60.94
2023-01-29T12:07:51.937Z,60.88
2023-01-29T12:11:09.151Z,60.00
2023-01-29T12:14:34.443Z,59.38
2023-01-29T12:17:39.608Z,59.95
2023-01-29T12:20:47.933Z,60.36
2023-01-29T12:24:03.572Z,59.09
2023-01-29T12:27:18.365Z,59.17
2023-01-29T12:30:35.509Z,59.58
2023-01-29T12:33:57.097Z,59.40
2023-01-29T12:37:26.136Z,58.52
2023-01-29T12:41:11.801Z,58.18
2023-01-29T12:44:21.087Z,58.08
2023-01-29T12:47:23.346Z,57.92
2023-01-29T12:50:33.227Z,58.23
2023-01-29T12:53:41.812Z,57.78
2023-01-29T12:56:56.483Z,57.35
2023-01-29T13:00:22.619Z,57.07
2023-01-29T13:03:53.747Z,57.67
2023-01-29T13:07:07.068Z,58.42
2023-01-29T13:10:17.137Z,58.24
2023-01-29T13:14:00.239Z,57.93
2023-01-29T13:17:14.132Z,58.32
2023-01-29T13:20:24.445Z,58.20
2023-01-29T13:23:35.067Z,55.82
2023-01-29T13:26:38.121Z,56.20
2023-01-29T13:29:40.347Z,57.07
2023-01-29T13:32:42.496Z,57.18
2023-01-29T13:35:46.440Z,57.75
2023-01-29T13:39:00.519Z,57.92
2023-01-29T13:42:20.478Z,57.39
2023-01-29T13:45:37.101Z,56.93
2023-01-29T13:48:46.853Z,56.71
2023-01-29T13:51:49.001Z,57.11
2023-01-29T13:54:57.612Z,57.60
2023-01-29T13:58:05.685Z,58.21
2023-01-29T14:01:08.366Z,58.85
2023-01-29T14:04:19.662Z,59.19
2023-01-29T14:07:50.147Z,59.23
2023-01-29T14:11:15.493Z,59.92
2023-01-29T14:14:49.408Z,60.09
2023-01-29T14:18:22.300Z,60.34
2023-01-29T14:21:29.851Z,61.06
2023-01-29T14:24:35.899Z,61.08
2023-01-29T14:27:40.190Z,61.01
2023-01-29T14:30:48.834Z,61.87
2023-01-29T14:33:53.796Z,62.82
2023-01-29T14:37:21.337Z,62.98
2023-01-29T14:40:35.355Z,62.40
2023-01-29T14:43:37.686Z,62.78
2023-01-29T14:46:44.141Z,63.06
2023-01-29T14:49:57.351Z,62.71
2023-01-29T14:53:06.032Z,62.73
2023-01-29T14:56:22.289Z,62.83
2023-01-29T14:59:37.876Z,62.91
2023-01-29T15:02:45.602Z,62.84
2023-01-29T15:05:49.764Z,63.23
2023-01-29T15:09:12.466Z,62.88
2023-01-29T15:12:34.423Z,62.72
2023-01-29T15:15:57.048Z,63.09
2023-01-29T15:19:15.152Z,63.08
2023-01-29T15:22:20.247Z,62.72
2023-01-29T15:25:22.904Z,63.46
2023-01-29T15:28:25.368Z,62.61
2023-01-29T15:31:28.672Z,63.42
2023-01-29T15:34:30.947Z,63.45
2023-01-29T15:37:34.733Z,63.51
2023-01-29T15:40:37.109Z,63.57
2023-01-29T15:43:44.752Z,63.64
2023-01-29T15:46:54.822Z,63.88
2023-01-29T15:49:57.846Z,64.49
2023-01-29T15:53:07.157Z,64.11
2023-01-29T15:56:17.035Z,64.67
2023-01-29T15:59:41.914Z,63.62
2023-01-29T16:02:44.309Z,63.53
2023-01-29T16:05:46.783Z,63.27
2023-01-29T16:08:54.626Z,63.62
2023-01-29T16:12:00.961Z,63.76
2023-01-29T16:15:05.433Z,64.00
2023-01-29T16:18:35.956Z,64.43
2023-01-29T16:21:44.464Z,64.46
2023-01-29T16:24:47.945Z,64.35
2023-01-29T16:27:51.704Z,64.60
2023-01-29T16:31:02.601Z,64.13
2023-01-29T16:34:14.473Z,64.37
2023-01-29T16:37:24.609Z,65.04
2023-01-29T16:40:33.583Z,64.49
2023-01-29T16:43:42.212Z,64.51
2023-01-29T16:46:51.486Z,65.16
2023-01-29T16:50:00.712Z,65.67
2023-01-29T16:53:05.764Z,65.40
2023-01-29T16:56:09.019Z,65.13
2023-01-29T16:59:18.842Z,65.40
2023-01-29T17:02:33.471Z,65.36
2023-01-29T17:05:38.196Z,65.09
2023-01-29T17:08:44.542Z,65.83
2023-01-29T17:11:50.386Z,65.56
2023-01-29T17:14:58.469Z,65.91
2023-01-29T17:18:03.603Z,65.71
2023-01-29T17:21:08.161Z,66.17
2023-01-29T17:24:11.787Z,65.97
2023-01-29T17:27:23.463Z,65.99
2023-01-29T17:30:30.543Z,66.19
2023-01-29T17:33:32.989Z,66.46
2023-01-29T17:36:37.046Z,65.79
2023-01-29T17:39:39.949Z,65.95
2023-01-29T17:42:42.782Z,66.74
2023-01-29T17:45:45.125Z,66.59
2023-01-29T17:48:49.593Z,66.48
2023-01-29T17:51:53.281Z,66.47
2023-01-29T17:54:55.845Z,66.92
2023-01-29T17:57:59.140Z,67.21
2023-01-29T18:01:01.794Z,67.18
2023-01-29T18:04:04.257Z,67.16
2023-01-29T18:07:07.231Z,66.90
2023-01-29T18:10:21.698Z,67.07
2023-01-29T18:13:24.321Z,67.14
2023-01-29T18:16:26.595Z,67.07
2023-01-29T18:19:32.215Z,67.24
2023-01-29T18:22:34.517Z,67.36
2023-01-29T18:25:37.687Z,66.96
2023-01-29T18:28:43.537Z,66.80
2023-01-29T18:31:48.333Z,67.26
2023-01-29T18:34:50.614Z,67.00
2023-01-29T18:37:52.960Z,67.13
2023-01-29T18:41:04.210Z,67.06
2023-01-29T18:44:06.650Z,67.77
2023-01-29T18:47:08.734Z,66.73
2023-01-29T18:50:12.133Z,67.42
2023-01-29T18:53:17.173Z,66.89
2023-01-29T18:56:20.532Z,66.93
2023-01-29T18:59:23.082Z,67.02
2023-01-29T19:02:26.575Z,67.03
2023-01-29T19:05:29.244Z,67.31
2023-01-29T19:08:32.973Z,67.40
2023-01-29T19:11:35.223Z,66.74
2023-01-29T19:14:38.530Z,66.91
2023-01-29T19:17:41.195Z,66.74
2023-01-29T19:20:44.094Z,67.52
2023-01-29T19:23:46.885Z,67.11
2023-01-29T19:26:51.624Z,67.08
2023-01-29T19:29:55.962Z,67.48
2023-01-29T19:32:58.290Z,67.28
2023-01-29T19:36:01.637Z,67.58
2023-01-29T19:39:04.484Z,67.39
2023-01-29T19:42:10.786Z,67.07
2023-01-29T19:45:13.507Z,67.76
2023-01-29T19:48:26.482Z,67.55
2023-01-29T19:51:29.297Z,67.89
2023-01-29T19:54:37.055Z,67.56
2023-01-29T19:57:40.342Z,66.67
2023-01-29T20:00:42.645Z,67.78
2023-01-29T20:03:48.472Z,67.76
2023-01-29T20:06:50.832Z,67.20
2023-01-29T20:09:54.377Z,67.17
2023-01-29T20:12:56.783Z,68.04
2023-01-29T20:16:03.224Z,67.91
2023-01-29T20:19:14.398Z,68.25
2023-01-29T20:22:17.687Z,68.18
2023-01-29T20:25:20.191Z,68.27
2023-01-29T20:28:22.645Z,68.30
2023-01-29T20:31:25.172Z,68.28
2023-01-29T20:34:27.203Z,68.88
2023-01-29T20:37:29.163Z,68.41
2023-01-29T20:40:31.571Z,68.81
2023-01-29T20:43:34.675Z,69.08
2023-01-29T20:46:40.853Z,69.50
2023-01-29T20:49:43.712Z,68.88
2023-01-29T20:52:46.384Z,69.88
2023-01-29T20:55:49.054Z,68.70
2023-01-29T20:58:52.017Z,68.63
2023-01-29T21:02:06.388Z,68.56
2023-01-29T21:05:09.062Z,68.79
2023-01-29T21:08:12.147Z,68.81
2023-01-29T21:11:14.700Z,68.91
2023-01-29T21:14:17.081Z,68.76
2023-01-29T21:17:19.532Z,68.82
2023-01-29T21:20:22.041Z,68.42
2023-01-29T21:23:24.726Z,68.32
2023-01-29T21:26:27.480Z,68.34
2023-01-29T21:29:29.727Z,68.24
2023-01-29T21:32:32.671Z,68.81
2023-01-29T21:35:37.111Z,69.17
2023-01-29T21:38:40.366Z,68.67
2023-01-29T21:42:02.596Z,69.28
2023-01-29T21:45:05.325Z,69.36
2023-01-29T21:48:09.209Z,68.73
2023-01-29T21:51:11.379Z,69.54
2023-01-29T21:54:15.473Z,69.50
2023-01-29T21:57:20.380Z,69.70
2023-01-29T22:00:22.547Z,69.95
2023-01-29T22:03:24.891Z,69.59
2023-01-29T22:06:27.049Z,69.42
2023-01-29T22:09:32.741Z,69.64
2023-01-29T22:12:38.216Z,69.25
2023-01-29T22:15:42.729Z,69.45
2023-01-29T22:18:45.046Z,69.96
2023-01-29T22:21:47.235Z,68.80
2023-01-29T22:24:50.925Z,69.09
2023-01-29T22:27:53.604Z,69.24
2023-01-29T22:31:05.209Z,69.10
2023-01-29T22:34:07.561Z,68.80
2023-01-29T22:37:09.927Z,68.33
2023-01-29T22:40:13.175Z,68.89
2023-01-29T22:43:22.894Z,69.10
2023-01-29T22:46:25.484Z,69.31
2023-01-29T22:49:31.955Z,69.48
2023-01-29T22:52:38.505Z,68.91
2023-01-29T22:55:46.977Z,68.72
2023-01-29T22:58:56.587Z,68.57
2023-01-29T23:01:59.925Z,68.85
2023-01-29T23:05:01.969Z,68.61
2023-01-29T23:08:03.859Z,68.45
2023-01-29T23:11:17.895Z,67.88
2023-01-29T23:14:21.485Z,68.57
2023-01-29T23:17:25.993Z,68.36
2023-01-29T23:20:31.917Z,68.47
2023-01-29T23:23:36.034Z,68.45
2023-01-29T23:26:57.226Z,68.53
2023-01-29T23:29:59.938Z,68.21
2023-01-29T23:33:03.198Z,68.33
2023-01-29T23:36:07.663Z,69.27
2023-01-29T23:39:10.233Z,69.65
2023-01-29T23:42:13.154Z,70.01
2023-01-29T23:45:15.360Z,71.02
2023-01-29T23:48:17.929Z,70.48
2023-01-29T23:51:23.713Z,71.00
2023-01-29T23:54:26.832Z,71.25
2023-01-29T23:57:29.372Z,71.41
